Time;durP1;ratioP1;P1;durP2;ratioP2;P2;SDS_P1;SDS_P2;PMS_P1;PMS_P2;Temp;Humidity;BMP_temperature;BMP_pressure;BME280_temperature;BME280_humidity;BME280_pressure;Samples;Min_cycle;Max_cycle;Signal;HPM_P1;HPM_P2
2021/03/03 00:00:38;;;;;;;17.4;9.199999;;;;;;;-0.17;47.90039;96490.97;;;;
2021/03/03 00:01:39;;;;;;;18.55;9.099999;;;;;;;-0.31;48.13672;96496.7;;;;
2021/03/03 00:02:40;;;;;;;18.55;9.099999;;;;;;;-0.31;48.13672;96496.7;;;;
2021/03/03 00:03:40;;;;;;;18.55;9.099999;;;;;;;-0.31;48.13672;96496.7;;;;
2021/03/03 00:04:41;;;;;;;18.55;9.099999;;;;;;;-0.31;48.13672;96496.7;;;;
2021/03/03 00:05:41;;;;;;;18.55;9.099999;;;;;;;-0.31;48.13672;96496.7;;;;
2021/03/03 00:06:42;;;;;;;18.55;9.099999;;;;;;;-0.31;48.13672;96496.7;;;;
2021/03/03 00:07:42;;;;;;;18.55;9.099999;;;;;;;-0.31;48.13672;96496.7;;;;
2021/03/03 00:08:43;;;;;;;18.55;9.099999;;;;;;;-0.31;48.13672;96496.7;;;;
2021/03/03 00:09:43;;;;;;;18.55;9.099999;;;;;;;-0.31;48.13672;96496.7;;;;
2021/03/03 00:10:44;;;;;;;18.55;9.099999;;;;;;;-0.31;48.13672;96496.7;;;;
2021/03/03 00:11:44;;;;;;;18.55;9.099999;;;;;;;-0.31;48.13672;96496.7;;;;
2021/03/03 00:12:45;;;;;;;19.2;9.599999;;;;;;;-0.42;48.36426;96500.87;;;;
2021/03/03 00:13:46;;;;;;;19.2;9.599999;;;;;;;-0.42;48.36426;96500.87;;;;
2021/03/03 00:14:46;;;;;;;19.2;9.599999;;;;;;;-0.42;48.36426;96500.87;;;;
2021/03/03 00:15:47;;;;;;;19.2;9.599999;;;;;;;-0.42;48.36426;96500.87;;;;
2021/03/03 00:16:47;;;;;;;19.2;9.599999;;;;;;;-0.42;48.36426;96500.87;;;;
2021/03/03 00:17:48;;;;;;;19.2;9.599999;;;;;;;-0.42;48.36426;96500.87;;;;
2021/03/03 00:18:48;;;;;;;19.2;9.599999;;;;;;;-0.42;48.36426;96500.87;;;;
2021/03/03 00:19:49;;;;;;;19.2;9.599999;;;;;;;-0.42;48.36426;96500.87;;;;
2021/03/03 00:20:49;;;;;;;19.2;9.599999;;;;;;;-0.42;48.36426;96500.87;;;;
2021/03/03 00:21:50;;;;;;;19.2;9.599999;;;;;;;-0.42;48.36426;96500.87;;;;
2021/03/03 00:22:50;;;;;;;21.7;10.35;;;;;;;-0.48;48.77832;96492.99;;;;
2021/03/03 00:23:51;;;;;;;21.7;10.35;;;;;;;-0.48;48.77832;96492.99;;;;
2021/03/03 00:24:51;;;;;;;21.7;10.35;;;;;;;-0.48;48.77832;96492.99;;;;
2021/03/03 00:25:52;;;;;;;21.7;10.35;;;;;;;-0.48;48.77832;96492.99;;;;
2021/03/03 00:26:52;;;;;;;21.7;10.35;;;;;;;-0.48;48.77832;96492.99;;;;
2021/03/03 00:27:53;;;;;;;21.7;10.35;;;;;;;-0.48;48.77832;96492.99;;;;
2021/03/03 00:28:53;;;;;;;21.7;10.35;;;;;;;-0.48;48.77832;96492.99;;;;
2021/03/03 00:29:54;;;;;;;21.7;10.35;;;;;;;-0.48;48.77832;96492.99;;;;
2021/03/03 00:30:54;;;;;;;21.7;10.35;;;;;;;-0.48;48.77832;96492.99;;;;
2021/03/03 00:31:55;;;;;;;21.7;10.35;;;;;;;-0.48;48.77832;96492.99;;;;
2021/03/03 00:32:55;;;;;;;21.7;10.35;;;;;;;-0.48;48.77832;96492.99;;;;
2021/03/03 00:33:56;;;;;;;23.05;10.6;;;;;;;-0.42;48.72168;96497.32;;;;
2021/03/03 00:34:56;;;;;;;23.05;10.6;;;;;;;-0.42;48.72168;96497.32;;;;
2021/03/03 00:35:57;;;;;;;23.05;10.6;;;;;;;-0.42;48.72168;96497.32;;;;
2021/03/03 00:36:57;;;;;;;23.05;10.6;;;;;;;-0.42;48.72168;96497.32;;;;
2021/03/03 00:37:58;;;;;;;23.05;10.6;;;;;;;-0.42;48.72168;96497.32;;;;
2021/03/03 00:38:58;;;;;;;23.05;10.6;;;;;;;-0.42;48.72168;96497.32;;;;
2021/03/03 00:39:59;;;;;;;23.05;10.6;;;;;;;-0.42;48.72168;96497.32;;;;
2021/03/03 00:40:59;;;;;;;23.05;10.6;;;;;;;-0.42;48.72168;96497.32;;;;
2021/03/03 00:42:00;;;;;;;23.05;10.6;;;;;;;-0.42;48.72168;96497.32;;;;
2021/03/03 00:43:01;;;;;;;23.05;10.6;;;;;;;-0.42;48.72168;96497.32;;;;
2021/03/03 00:44:01;;;;;;;23.05;10.6;;;;;;;-0.42;48.72168;96497.32;;;;
2021/03/03 00:45:02;;;;;;;23.2;9.950001;;;;;;;-0.48;49.03027;96478.88;;;;
2021/03/03 00:46:05;;;;;;;23.2;9.950001;;;;;;;-0.48;49.03027;96478.88;;;;
2021/03/03 00:47:06;;;;;;;23.2;9.950001;;;;;;;-0.48;49.03027;96478.88;;;;
2021/03/03 00:48:07;;;;;;;23.2;9.950001;;;;;;;-0.48;49.03027;96478.88;;;;
2021/03/03 00:49:08;;;;;;;23.2;9.950001;;;;;;;-0.48;49.03027;96478.88;;;;
2021/03/03 00:50:09;;;;;;;23.2;9.950001;;;;;;;-0.48;49.03027;96478.88;;;;
2021/03/03 00:51:10;;;;;;;23.2;9.950001;;;;;;;-0.48;49.03027;96478.88;;;;
2021/03/03 00:52:10;;;;;;;23.2;9.950001;;;;;;;-0.48;49.03027;96478.88;;;;
2021/03/03 00:53:11;;;;;;;23.2;9.950001;;;;;;;-0.48;49.03027;96478.88;;;;
2021/03/03 00:54:12;;;;;;;23.2;9.950001;;;;;;;-0.48;49.03027;96478.88;;;;
2021/03/03 00:55:12;;;;;;;17.3;8.7;;;;;;;-0.52;49.09863;96480.97;;;;
2021/03/03 00:56:14;;;;;;;17.3;8.7;;;;;;;-0.52;49.09863;96480.97;;;;
2021/03/03 00:57:14;;;;;;;17.3;8.7;;;;;;;-0.52;49.09863;96480.97;;;;
2021/03/03 00:58:15;;;;;;;17.3;8.7;;;;;;;-0.52;49.09863;96480.97;;;;
2021/03/03 00:59:15;;;;;;;17.3;8.7;;;;;;;-0.52;49.09863;96480.97;;;;
2021/03/03 01:00:16;;;;;;;17.3;8.7;;;;;;;-0.52;49.09863;96480.97;;;;
2021/03/03 01:01:18;;;;;;;17.3;8.7;;;;;;;-0.52;49.09863;96480.97;;;;
2021/03/03 01:02:18;;;;;;;17.3;8.7;;;;;;;-0.52;49.09863;96480.97;;;;
2021/03/03 01:03:19;;;;;;;17.3;8.7;;;;;;;-0.52;49.09863;96480.97;;;;
2021/03/03 01:04:19;;;;;;;17.3;8.7;;;;;;;-0.52;49.09863;96480.97;;;;
2021/03/03 01:05:20;;;;;;;17.3;8.7;;;;;;;-0.52;49.09863;96480.97;;;;
2021/03/03 01:06:20;;;;;;;20.3;9.050002;;;;;;;-0.66;49.29199;96474.76;;;;
2021/03/03 01:07:21;;;;;;;20.3;9.050002;;;;;;;-0.66;49.29199;96474.76;;;;
2021/03/03 01:08:21;;;;;;;20.3;9.050002;;;;;;;-0.66;49.29199;96474.76;;;;
2021/03/03 01:09:23;;;;;;;20.3;9.050002;;;;;;;-0.66;49.29199;96474.76;;;;
2021/03/03 01:10:23;;;;;;;20.3;9.050002;;;;;;;-0.66;49.29199;96474.76;;;;
2021/03/03 01:11:24;;;;;;;20.3;9.050002;;;;;;;-0.66;49.29199;96474.76;;;;
2021/03/03 01:12:24;;;;;;;20.3;9.050002;;;;;;;-0.66;49.29199;96474.76;;;;
2021/03/03 01:13:25;;;;;;;20.3;9.050002;;;;;;;-0.66;49.29199;96474.76;;;;
2021/03/03 01:14:26;;;;;;;20.3;9.050002;;;;;;;-0.66;49.29199;96474.76;;;;
2021/03/03 01:15:26;;;;;;;20.3;9.050002;;;;;;;-0.66;49.29199;96474.76;;;;
2021/03/03 01:16:27;;;;;;;18.1;8.6;;;;;;;-0.8;49.53906;96467.21;;;;
2021/03/03 01:17:28;;;;;;;18.1;8.6;;;;;;;-0.8;49.53906;96467.21;;;;
2021/03/03 01:18:28;;;;;;;18.1;8.6;;;;;;;-0.8;49.53906;96467.21;;;;
2021/03/03 01:19:29;;;;;;;18.1;8.6;;;;;;;-0.8;49.53906;96467.21;;;;
2021/03/03 01:20:30;;;;;;;18.1;8.6;;;;;;;-0.8;49.53906;96467.21;;;;
2021/03/03 01:21:31;;;;;;;18.1;8.6;;;;;;;-0.8;49.53906;96467.21;;;;
2021/03/03 01:22:31;;;;;;;18.1;8.6;;;;;;;-0.8;49.53906;96467.21;;;;
2021/03/03 01:23:32;;;;;;;18.1;8.6;;;;;;;-0.8;49.53906;96467.21;;;;
2021/03/03 01:24:32;;;;;;;18.1;8.6;;;;;;;-0.8;49.53906;96467.21;;;;
2021/03/03 01:25:33;;;;;;;18.1;8.6;;;;;;;-0.8;49.53906;96467.21;;;;
2021/03/03 01:26:34;;;;;;;18.1;8.6;;;;;;;-0.8;49.53906;96467.21;;;;
2021/03/03 01:27:35;;;;;;;16.55;8.699999;;;;;;;-0.93;49.72266;96454.22;;;;
2021/03/03 01:28:35;;;;;;;16.55;8.699999;;;;;;;-0.93;49.72266;96454.22;;;;
2021/03/03 01:29:36;;;;;;;16.55;8.699999;;;;;;;-0.93;49.72266;96454.22;;;;
2021/03/03 01:30:36;;;;;;;16.55;8.699999;;;;;;;-0.93;49.72266;96454.22;;;;
2021/03/03 01:31:37;;;;;;;16.55;8.699999;;;;;;;-0.93;49.72266;96454.22;;;;
2021/03/03 01:32:38;;;;;;;16.55;8.699999;;;;;;;-0.93;49.72266;96454.22;;;;
2021/03/03 01:33:38;;;;;;;16.55;8.699999;;;;;;;-0.93;49.72266;96454.22;;;;
2021/03/03 01:34:39;;;;;;;16.55;8.699999;;;;;;;-0.93;49.72266;96454.22;;;;
2021/03/03 01:35:39;;;;;;;16.55;8.699999;;;;;;;-0.93;49.72266;96454.22;;;;
2021/03/03 01:36:40;;;;;;;16.55;8.699999;;;;;;;-0.93;49.72266;96454.22;;;;
2021/03/03 01:37:40;;;;;;;18.65;8.299999;;;;;;;-1.04;49.99316;96438.53;;;;
2021/03/03 01:38:41;;;;;;;18.65;8.299999;;;;;;;-1.04;49.99316;96438.53;;;;
2021/03/03 01:39:41;;;;;;;18.65;8.299999;;;;;;;-1.04;49.99316;96438.53;;;;
2021/03/03 01:40:42;;;;;;;18.65;8.299999;;;;;;;-1.04;49.99316;96438.53;;;;
2021/03/03 01:41:42;;;;;;;18.65;8.299999;;;;;;;-1.04;49.99316;96438.53;;;;
2021/03/03 01:42:43;;;;;;;18.65;8.299999;;;;;;;-1.04;49.99316;96438.53;;;;
2021/03/03 01:43:43;;;;;;;18.65;8.299999;;;;;;;-1.04;49.99316;96438.53;;;;
2021/03/03 01:44:44;;;;;;;18.65;8.299999;;;;;;;-1.04;49.99316;96438.53;;;;
2021/03/03 01:45:45;;;;;;;18.65;8.299999;;;;;;;-1.04;49.99316;96438.53;;;;
2021/03/03 01:46:48;;;;;;;18.65;8.299999;;;;;;;-1.04;49.99316;96438.53;;;;
2021/03/03 01:47:48;;;;;;;18.65;8.299999;;;;;;;-1.04;49.99316;96438.53;;;;
2021/03/03 01:48:49;;;;;;;17.95;8.55;;;;;;;-1.17;50.125;96427.76;;;;
2021/03/03 01:49:50;;;;;;;17.95;8.55;;;;;;;-1.17;50.125;96427.76;;;;
2021/03/03 01:50:50;;;;;;;17.95;8.55;;;;;;;-1.17;50.125;96427.76;;;;
2021/03/03 01:51:51;;;;;;;17.95;8.55;;;;;;;-1.17;50.125;96427.76;;;;
2021/03/03 01:52:51;;;;;;;17.95;8.55;;;;;;;-1.17;50.125;96427.76;;;;
2021/03/03 01:53:52;;;;;;;17.95;8.55;;;;;;;-1.17;50.125;96427.76;;;;
2021/03/03 01:54:53;;;;;;;17.95;8.55;;;;;;;-1.17;50.125;96427.76;;;;
2021/03/03 01:55:54;;;;;;;17.95;8.55;;;;;;;-1.17;50.125;96427.76;;;;
2021/03/03 01:56:55;;;;;;;17.95;8.55;;;;;;;-1.17;50.125;96427.76;;;;
2021/03/03 01:57:57;;;;;;;17.95;8.55;;;;;;;-1.17;50.125;96427.76;;;;
2021/03/03 01:58:58;;;;;;;17.45;8.349998;;;;;;;-1.28;50.40527;96426.97;;;;
2021/03/03 01:59:58;;;;;;;17.45;8.349998;;;;;;;-1.28;50.40527;96426.97;;;;
2021/03/03 02:00:59;;;;;;;17.45;8.349998;;;;;;;-1.28;50.40527;96426.97;;;;
2021/03/03 02:02:00;;;;;;;17.45;8.349998;;;;;;;-1.28;50.40527;96426.97;;;;
2021/03/03 02:03:01;;;;;;;17.45;8.349998;;;;;;;-1.28;50.40527;96426.97;;;;
2021/03/03 02:04:01;;;;;;;17.45;8.349998;;;;;;;-1.28;50.40527;96426.97;;;;
2021/03/03 02:05:03;;;;;;;17.45;8.349998;;;;;;;-1.28;50.40527;96426.97;;;;
2021/03/03 02:06:05;;;;;;;17.45;8.349998;;;;;;;-1.28;50.40527;96426.97;;;;
2021/03/03 02:07:12;;;;;;;17.45;8.349998;;;;;;;-1.28;50.40527;96426.97;;;;
2021/03/03 02:08:18;;;;;;;17.45;8.349998;;;;;;;-1.28;50.40527;96426.97;;;;
2021/03/03 02:09:23;;;;;;;17.45;8.349998;;;;;;;-1.28;50.40527;96426.97;;;;
2021/03/03 02:10:36;;;;;;;18;8.1;;;;;;;-1.38;50.5293;96420.36;;;;
2021/03/03 02:11:43;;;;;;;18;8.1;;;;;;;-1.38;50.5293;96420.36;;;;
2021/03/03 02:12:50;;;;;;;18;8.1;;;;;;;-1.38;50.5293;96420.36;;;;
2021/03/03 02:13:56;;;;;;;18;8.1;;;;;;;-1.38;50.5293;96420.36;;;;
2021/03/03 02:15:01;;;;;;;18;8.1;;;;;;;-1.38;50.5293;96420.36;;;;
2021/03/03 02:16:06;;;;;;;18;8.1;;;;;;;-1.38;50.5293;96420.36;;;;
2021/03/03 02:17:10;;;;;;;18;8.1;;;;;;;-1.38;50.5293;96420.36;;;;
2021/03/03 02:18:11;;;;;;;18;8.1;;;;;;;-1.38;50.5293;96420.36;;;;
2021/03/03 02:19:12;;;;;;;18;8.1;;;;;;;-1.38;50.5293;96420.36;;;;
2021/03/03 02:20:19;;;;;;;15.15;7.349999;;;;;;;-1.48;50.76953;96423.91;;;;
2021/03/03 02:21:24;;;;;;;15.15;7.349999;;;;;;;-1.48;50.76953;96423.91;;;;
2021/03/03 02:22:34;;;;;;;15.15;7.349999;;;;;;;-1.48;50.76953;96423.91;;;;
2021/03/03 02:23:53;;;;;;;15.15;7.349999;;;;;;;-1.48;50.76953;96423.91;;;;
2021/03/03 02:25:00;;;;;;;15.15;7.349999;;;;;;;-1.48;50.76953;96423.91;;;;
2021/03/03 02:26:06;;;;;;;15.15;7.349999;;;;;;;-1.48;50.76953;96423.91;;;;
2021/03/03 02:27:07;;;;;;;15.15;7.349999;;;;;;;-1.48;50.76953;96423.91;;;;
2021/03/03 02:28:09;;;;;;;15.15;7.349999;;;;;;;-1.48;50.76953;96423.91;;;;
2021/03/03 02:29:12;;;;;;;15.15;7.349999;;;;;;;-1.48;50.76953;96423.91;;;;
2021/03/03 02:30:17;;;;;;;15.15;7.349999;;;;;;;-1.48;50.76953;96423.91;;;;
2021/03/03 02:31:19;;;;;;;14.6;7.25;;;;;;;-1.56;50.9375;96416.72;;;;
2021/03/03 02:32:20;;;;;;;14.6;7.25;;;;;;;-1.56;50.9375;96416.72;;;;
2021/03/03 02:33:20;;;;;;;14.6;7.25;;;;;;;-1.56;50.9375;96416.72;;;;
2021/03/03 02:34:22;;;;;;;14.6;7.25;;;;;;;-1.56;50.9375;96416.72;;;;
2021/03/03 02:35:26;;;;;;;14.6;7.25;;;;;;;-1.56;50.9375;96416.72;;;;
2021/03/03 02:36:29;;;;;;;14.6;7.25;;;;;;;-1.56;50.9375;96416.72;;;;
2021/03/03 02:37:30;;;;;;;14.6;7.25;;;;;;;-1.56;50.9375;96416.72;;;;
2021/03/03 02:38:32;;;;;;;14.6;7.25;;;;;;;-1.56;50.9375;96416.72;;;;
2021/03/03 02:39:33;;;;;;;14.6;7.25;;;;;;;-1.56;50.9375;96416.72;;;;
2021/03/03 02:40:34;;;;;;;14.6;7.25;;;;;;;-1.56;50.9375;96416.72;;;;
2021/03/03 02:41:36;;;;;;;15.35;6.95;;;;;;;-1.55;51.08496;96418.33;;;;
2021/03/03 02:42:37;;;;;;;15.35;6.95;;;;;;;-1.55;51.08496;96418.33;;;;
2021/03/03 02:43:39;;;;;;;15.35;6.95;;;;;;;-1.55;51.08496;96418.33;;;;
2021/03/03 02:44:42;;;;;;;15.35;6.95;;;;;;;-1.55;51.08496;96418.33;;;;
2021/03/03 02:45:42;;;;;;;15.35;6.95;;;;;;;-1.55;51.08496;96418.33;;;;
2021/03/03 02:46:45;;;;;;;15.35;6.95;;;;;;;-1.55;51.08496;96418.33;;;;
2021/03/03 02:47:46;;;;;;;15.35;6.95;;;;;;;-1.55;51.08496;96418.33;;;;
2021/03/03 02:48:47;;;;;;;15.35;6.95;;;;;;;-1.55;51.08496;96418.33;;;;
2021/03/03 02:49:48;;;;;;;15.35;6.95;;;;;;;-1.55;51.08496;96418.33;;;;
2021/03/03 02:50:50;;;;;;;15.35;6.95;;;;;;;-1.55;51.08496;96418.33;;;;
2021/03/03 02:51:50;;;;;;;15.35;6.95;;;;;;;-1.55;51.08496;96418.33;;;;
2021/03/03 02:52:51;;;;;;;14.95;6.900001;;;;;;;-1.57;51.11426;96428.21;;;;
2021/03/03 02:53:54;;;;;;;14.95;6.900001;;;;;;;-1.57;51.11426;96428.21;;;;
2021/03/03 02:54:54;;;;;;;14.95;6.900001;;;;;;;-1.57;51.11426;96428.21;;;;
2021/03/03 02:55:54;;;;;;;14.95;6.900001;;;;;;;-1.57;51.11426;96428.21;;;;
2021/03/03 02:56:55;;;;;;;14.95;6.900001;;;;;;;-1.57;51.11426;96428.21;;;;
2021/03/03 02:57:55;;;;;;;14.95;6.900001;;;;;;;-1.57;51.11426;96428.21;;;;
2021/03/03 02:58:58;;;;;;;14.95;6.900001;;;;;;;-1.57;51.11426;96428.21;;;;
2021/03/03 03:00:02;;;;;;;14.95;6.900001;;;;;;;-1.57;51.11426;96428.21;;;;
2021/03/03 03:01:05;;;;;;;14.95;6.900001;;;;;;;-1.57;51.11426;96428.21;;;;
2021/03/03 03:02:08;;;;;;;14.95;6.900001;;;;;;;-1.57;51.11426;96428.21;;;;
2021/03/03 03:03:12;;;;;;;10.45;6.55;;;;;;;-1.68;51.625;96426.98;;;;
2021/03/03 03:04:20;;;;;;;10.45;6.55;;;;;;;-1.68;51.625;96426.98;;;;
2021/03/03 03:05:24;;;;;;;10.45;6.55;;;;;;;-1.68;51.625;96426.98;;;;
2021/03/03 03:06:28;;;;;;;10.45;6.55;;;;;;;-1.68;51.625;96426.98;;;;
2021/03/03 03:07:32;;;;;;;10.45;6.55;;;;;;;-1.68;51.625;96426.98;;;;
2021/03/03 03:08:37;;;;;;;10.45;6.55;;;;;;;-1.68;51.625;96426.98;;;;
2021/03/03 03:09:40;;;;;;;10.45;6.55;;;;;;;-1.68;51.625;96426.98;;;;
2021/03/03 03:10:43;;;;;;;10.45;6.55;;;;;;;-1.68;51.625;96426.98;;;;
2021/03/03 03:11:44;;;;;;;10.45;6.55;;;;;;;-1.68;51.625;96426.98;;;;
2021/03/03 03:12:48;;;;;;;10.45;6.55;;;;;;;-1.68;51.625;96426.98;;;;
2021/03/03 03:13:53;;;;;;;12.3;6.5;;;;;;;-1.73;51.66992;96416.44;;;;
2021/03/03 03:15:00;;;;;;;12.3;6.5;;;;;;;-1.73;51.66992;96416.44;;;;
2021/03/03 03:16:01;;;;;;;12.3;6.5;;;;;;;-1.73;51.66992;96416.44;;;;
2021/03/03 03:17:02;;;;;;;12.3;6.5;;;;;;;-1.73;51.66992;96416.44;;;;
2021/03/03 03:18:07;;;;;;;12.3;6.5;;;;;;;-1.73;51.66992;96416.44;;;;
2021/03/03 03:19:17;;;;;;;12.3;6.5;;;;;;;-1.73;51.66992;96416.44;;;;
2021/03/03 03:20:22;;;;;;;12.3;6.5;;;;;;;-1.73;51.66992;96416.44;;;;
2021/03/03 03:21:25;;;;;;;12.3;6.5;;;;;;;-1.73;51.66992;96416.44;;;;
2021/03/03 03:22:29;;;;;;;12.3;6.5;;;;;;;-1.73;51.66992;96416.44;;;;
2021/03/03 03:23:30;;;;;;;12.3;6.5;;;;;;;-1.73;51.66992;96416.44;;;;
2021/03/03 03:24:31;;;;;;;11.05;6.349999;;;;;;;-1.75;51.8252;96409.53;;;;
2021/03/03 03:25:33;;;;;;;11.05;6.349999;;;;;;;-1.75;51.8252;96409.53;;;;
2021/03/03 03:26:34;;;;;;;11.05;6.349999;;;;;;;-1.75;51.8252;96409.53;;;;
2021/03/03 03:27:36;;;;;;;11.05;6.349999;;;;;;;-1.75;51.8252;96409.53;;;;
2021/03/03 03:28:37;;;;;;;11.05;6.349999;;;;;;;-1.75;51.8252;96409.53;;;;
2021/03/03 03:29:39;;;;;;;11.05;6.349999;;;;;;;-1.75;51.8252;96409.53;;;;
2021/03/03 03:30:41;;;;;;;11.05;6.349999;;;;;;;-1.75;51.8252;96409.53;;;;
2021/03/03 03:31:42;;;;;;;11.05;6.349999;;;;;;;-1.75;51.8252;96409.53;;;;
2021/03/03 03:32:44;;;;;;;11.05;6.349999;;;;;;;-1.75;51.8252;96409.53;;;;
2021/03/03 03:33:45;;;;;;;11.05;6.349999;;;;;;;-1.75;51.8252;96409.53;;;;
2021/03/03 03:34:47;;;;;;;11.05;6.349999;;;;;;;-1.75;51.8252;96409.53;;;;
2021/03/03 03:35:48;;;;;;;12.7;6.8;;;;;;;-1.7;51.78906;96412.61;;;;
2021/03/03 03:36:48;;;;;;;12.7;6.8;;;;;;;-1.7;51.78906;96412.61;;;;
2021/03/03 03:37:49;;;;;;;12.7;6.8;;;;;;;-1.7;51.78906;96412.61;;;;
2021/03/03 03:38:50;;;;;;;12.7;6.8;;;;;;;-1.7;51.78906;96412.61;;;;
2021/03/03 03:39:50;;;;;;;12.7;6.8;;;;;;;-1.7;51.78906;96412.61;;;;
2021/03/03 03:40:51;;;;;;;12.7;6.8;;;;;;;-1.7;51.78906;96412.61;;;;
2021/03/03 03:41:52;;;;;;;12.7;6.8;;;;;;;-1.7;51.78906;96412.61;;;;
2021/03/03 03:42:54;;;;;;;12.7;6.8;;;;;;;-1.7;51.78906;96412.61;;;;
2021/03/03 03:43:56;;;;;;;12.7;6.8;;;;;;;-1.7;51.78906;96412.61;;;;
2021/03/03 03:44:58;;;;;;;12.7;6.8;;;;;;;-1.7;51.78906;96412.61;;;;
2021/03/03 03:46:00;;;;;;;13.35;6.15;;;;;;;-1.76;52.02344;96411.33;;;;
2021/03/03 03:47:03;;;;;;;13.35;6.15;;;;;;;-1.76;52.02344;96411.33;;;;
2021/03/03 03:48:04;;;;;;;13.35;6.15;;;;;;;-1.76;52.02344;96411.33;;;;
2021/03/03 03:49:06;;;;;;;13.35;6.15;;;;;;;-1.76;52.02344;96411.33;;;;
2021/03/03 03:50:07;;;;;;;13.35;6.15;;;;;;;-1.76;52.02344;96411.33;;;;
2021/03/03 03:51:09;;;;;;;13.35;6.15;;;;;;;-1.76;52.02344;96411.33;;;;
2021/03/03 03:52:09;;;;;;;13.35;6.15;;;;;;;-1.76;52.02344;96411.33;;;;
2021/03/03 03:53:13;;;;;;;13.35;6.15;;;;;;;-1.76;52.02344;96411.33;;;;
2021/03/03 03:54:14;;;;;;;13.35;6.15;;;;;;;-1.76;52.02344;96411.33;;;;
2021/03/03 03:55:14;;;;;;;13.35;6.15;;;;;;;-1.76;52.02344;96411.33;;;;
2021/03/03 03:56:16;;;;;;;13.35;6.15;;;;;;;-1.76;52.02344;96411.33;;;;
2021/03/03 03:57:16;;;;;;;10.5;6.1;;;;;;;-1.72;51.99707;96411;;;;
2021/03/03 03:58:17;;;;;;;10.5;6.1;;;;;;;-1.72;51.99707;96411;;;;
2021/03/03 03:59:18;;;;;;;10.5;6.1;;;;;;;-1.72;51.99707;96411;;;;
2021/03/03 04:00:18;;;;;;;10.5;6.1;;;;;;;-1.72;51.99707;96411;;;;
2021/03/03 04:01:21;;;;;;;10.5;6.1;;;;;;;-1.72;51.99707;96411;;;;
2021/03/03 04:02:21;;;;;;;10.5;6.1;;;;;;;-1.72;51.99707;96411;;;;
2021/03/03 04:03:22;;;;;;;10.5;6.1;;;;;;;-1.72;51.99707;96411;;;;
2021/03/03 04:04:22;;;;;;;10.5;6.1;;;;;;;-1.72;51.99707;96411;;;;
2021/03/03 04:05:23;;;;;;;10.5;6.1;;;;;;;-1.72;51.99707;96411;;;;
2021/03/03 04:06:24;;;;;;;10.5;6.1;;;;;;;-1.72;51.99707;96411;;;;
2021/03/03 04:07:25;;;;;;;12.05;5.849999;;;;;;;-1.71;51.99805;96431.62;;;;
2021/03/03 04:08:25;;;;;;;12.05;5.849999;;;;;;;-1.71;51.99805;96431.62;;;;
2021/03/03 04:09:26;;;;;;;12.05;5.849999;;;;;;;-1.71;51.99805;96431.62;;;;
2021/03/03 04:10:26;;;;;;;12.05;5.849999;;;;;;;-1.71;51.99805;96431.62;;;;
2021/03/03 04:11:29;;;;;;;12.05;5.849999;;;;;;;-1.71;51.99805;96431.62;;;;
2021/03/03 04:12:29;;;;;;;12.05;5.849999;;;;;;;-1.71;51.99805;96431.62;;;;
2021/03/03 04:13:29;;;;;;;12.05;5.849999;;;;;;;-1.71;51.99805;96431.62;;;;
2021/03/03 04:14:30;;;;;;;12.05;5.849999;;;;;;;-1.71;51.99805;96431.62;;;;
2021/03/03 04:15:30;;;;;;;12.05;5.849999;;;;;;;-1.71;51.99805;96431.62;;;;
2021/03/03 04:16:31;;;;;;;12.05;5.849999;;;;;;;-1.71;51.99805;96431.62;;;;
2021/03/03 04:17:31;;;;;;;12.05;5.849999;;;;;;;-1.71;51.99805;96431.62;;;;
2021/03/03 04:18:32;;;;;;;12.3;6.2;;;;;;;-1.71;52.32129;96427.73;;;;
2021/03/03 04:19:33;;;;;;;12.3;6.2;;;;;;;-1.71;52.32129;96427.73;;;;
2021/03/03 04:20:33;;;;;;;12.3;6.2;;;;;;;-1.71;52.32129;96427.73;;;;
2021/03/03 04:21:34;;;;;;;12.3;6.2;;;;;;;-1.71;52.32129;96427.73;;;;
2021/03/03 04:22:34;;;;;;;12.3;6.2;;;;;;;-1.71;52.32129;96427.73;;;;
2021/03/03 04:23:35;;;;;;;12.3;6.2;;;;;;;-1.71;52.32129;96427.73;;;;
2021/03/03 04:24:36;;;;;;;12.3;6.2;;;;;;;-1.71;52.32129;96427.73;;;;
2021/03/03 04:25:36;;;;;;;12.3;6.2;;;;;;;-1.71;52.32129;96427.73;;;;
2021/03/03 04:26:37;;;;;;;12.3;6.2;;;;;;;-1.71;52.32129;96427.73;;;;
2021/03/03 04:27:38;;;;;;;12.3;6.2;;;;;;;-1.71;52.32129;96427.73;;;;
2021/03/03 04:28:39;;;;;;;12.9;5.799999;;;;;;;-1.65;52.46582;96436.44;;;;
2021/03/03 04:29:40;;;;;;;12.9;5.799999;;;;;;;-1.65;52.46582;96436.44;;;;
2021/03/03 04:30:40;;;;;;;12.9;5.799999;;;;;;;-1.65;52.46582;96436.44;;;;
2021/03/03 04:31:41;;;;;;;12.9;5.799999;;;;;;;-1.65;52.46582;96436.44;;;;
2021/03/03 04:32:41;;;;;;;12.9;5.799999;;;;;;;-1.65;52.46582;96436.44;;;;
2021/03/03 04:33:42;;;;;;;12.9;5.799999;;;;;;;-1.65;52.46582;96436.44;;;;
2021/03/03 04:34:42;;;;;;;12.9;5.799999;;;;;;;-1.65;52.46582;96436.44;;;;
2021/03/03 04:35:43;;;;;;;12.9;5.799999;;;;;;;-1.65;52.46582;96436.44;;;;
2021/03/03 04:36:43;;;;;;;12.9;5.799999;;;;;;;-1.65;52.46582;96436.44;;;;
2021/03/03 04:37:44;;;;;;;12.9;5.799999;;;;;;;-1.65;52.46582;96436.44;;;;
2021/03/03 04:38:44;;;;;;;12.9;5.799999;;;;;;;-1.65;52.46582;96436.44;;;;
2021/03/03 04:39:45;;;;;;;10.5;5.15;;;;;;;-1.69;52.51367;96431.48;;;;
2021/03/03 04:40:45;;;;;;;10.5;5.15;;;;;;;-1.69;52.51367;96431.48;;;;
2021/03/03 04:41:46;;;;;;;10.5;5.15;;;;;;;-1.69;52.51367;96431.48;;;;
2021/03/03 04:42:46;;;;;;;10.5;5.15;;;;;;;-1.69;52.51367;96431.48;;;;
2021/03/03 04:43:47;;;;;;;10.5;5.15;;;;;;;-1.69;52.51367;96431.48;;;;
2021/03/03 04:44:47;;;;;;;10.5;5.15;;;;;;;-1.69;52.51367;96431.48;;;;
2021/03/03 04:45:48;;;;;;;10.5;5.15;;;;;;;-1.69;52.51367;96431.48;;;;
2021/03/03 04:46:48;;;;;;;10.5;5.15;;;;;;;-1.69;52.51367;96431.48;;;;
2021/03/03 04:47:49;;;;;;;10.5;5.15;;;;;;;-1.69;52.51367;96431.48;;;;
2021/03/03 04:48:49;;;;;;;10.5;5.15;;;;;;;-1.69;52.51367;96431.48;;;;
2021/03/03 04:49:50;;;;;;;9.4;4.650001;;;;;;;-1.64;52.68652;96438.05;;;;
2021/03/03 04:50:50;;;;;;;9.4;4.650001;;;;;;;-1.64;52.68652;96438.05;;;;
2021/03/03 04:51:51;;;;;;;9.4;4.650001;;;;;;;-1.64;52.68652;96438.05;;;;
2021/03/03 04:52:51;;;;;;;9.4;4.650001;;;;;;;-1.64;52.68652;96438.05;;;;
2021/03/03 04:53:52;;;;;;;9.4;4.650001;;;;;;;-1.64;52.68652;96438.05;;;;
2021/03/03 04:54:52;;;;;;;9.4;4.650001;;;;;;;-1.64;52.68652;96438.05;;;;
2021/03/03 04:55:53;;;;;;;9.4;4.650001;;;;;;;-1.64;52.68652;96438.05;;;;
2021/03/03 04:56:53;;;;;;;9.4;4.650001;;;;;;;-1.64;52.68652;96438.05;;;;
2021/03/03 04:57:54;;;;;;;9.4;4.650001;;;;;;;-1.64;52.68652;96438.05;;;;
2021/03/03 04:58:54;;;;;;;9.4;4.650001;;;;;;;-1.64;52.68652;96438.05;;;;
2021/03/03 04:59:55;;;;;;;9.4;4.650001;;;;;;;-1.64;52.68652;96438.05;;;;
2021/03/03 05:00:55;;;;;;;9.949999;4.900001;;;;;;;-1.54;52.64648;96431.05;;;;
2021/03/03 05:01:56;;;;;;;9.949999;4.900001;;;;;;;-1.54;52.64648;96431.05;;;;
2021/03/03 05:02:56;;;;;;;9.949999;4.900001;;;;;;;-1.54;52.64648;96431.05;;;;
2021/03/03 05:03:57;;;;;;;9.949999;4.900001;;;;;;;-1.54;52.64648;96431.05;;;;
2021/03/03 05:04:57;;;;;;;9.949999;4.900001;;;;;;;-1.54;52.64648;96431.05;;;;
2021/03/03 05:05:58;;;;;;;9.949999;4.900001;;;;;;;-1.54;52.64648;96431.05;;;;
2021/03/03 05:06:58;;;;;;;9.949999;4.900001;;;;;;;-1.54;52.64648;96431.05;;;;
2021/03/03 05:07:59;;;;;;;9.949999;4.900001;;;;;;;-1.54;52.64648;96431.05;;;;
2021/03/03 05:08:59;;;;;;;9.949999;4.900001;;;;;;;-1.54;52.64648;96431.05;;;;
2021/03/03 05:10:00;;;;;;;9.949999;4.900001;;;;;;;-1.54;52.64648;96431.05;;;;
2021/03/03 05:11:00;;;;;;;9.949999;4.900001;;;;;;;-1.54;52.64648;96431.05;;;;
2021/03/03 05:12:01;;;;;;;8.4;4.35;;;;;;;-1.44;52.64844;96419.51;;;;
2021/03/03 05:13:03;;;;;;;8.4;4.35;;;;;;;-1.44;52.64844;96419.51;;;;
2021/03/03 05:14:03;;;;;;;8.4;4.35;;;;;;;-1.44;52.64844;96419.51;;;;
2021/03/03 05:15:03;;;;;;;8.4;4.35;;;;;;;-1.44;52.64844;96419.51;;;;
2021/03/03 05:16:05;;;;;;;8.4;4.35;;;;;;;-1.44;52.64844;96419.51;;;;
2021/03/03 05:17:05;;;;;;;8.4;4.35;;;;;;;-1.44;52.64844;96419.51;;;;
2021/03/03 05:18:06;;;;;;;8.4;4.35;;;;;;;-1.44;52.64844;96419.51;;;;
2021/03/03 05:19:07;;;;;;;8.4;4.35;;;;;;;-1.44;52.64844;96419.51;;;;
2021/03/03 05:20:08;;;;;;;8.4;4.35;;;;;;;-1.44;52.64844;96419.51;;;;
2021/03/03 05:21:10;;;;;;;8.4;4.35;;;;;;;-1.44;52.64844;96419.51;;;;
2021/03/03 05:22:11;;;;;;;7.149999;3.85;;;;;;;-1.35;52.80664;96418.28;;;;
2021/03/03 05:23:12;;;;;;;7.149999;3.85;;;;;;;-1.35;52.80664;96418.28;;;;
2021/03/03 05:24:12;;;;;;;7.149999;3.85;;;;;;;-1.35;52.80664;96418.28;;;;
2021/03/03 05:25:13;;;;;;;7.149999;3.85;;;;;;;-1.35;52.80664;96418.28;;;;
2021/03/03 05:26:13;;;;;;;7.149999;3.85;;;;;;;-1.35;52.80664;96418.28;;;;
2021/03/03 05:27:14;;;;;;;7.149999;3.85;;;;;;;-1.35;52.80664;96418.28;;;;
2021/03/03 05:28:15;;;;;;;7.149999;3.85;;;;;;;-1.35;52.80664;96418.28;;;;
2021/03/03 05:29:15;;;;;;;7.149999;3.85;;;;;;;-1.35;52.80664;96418.28;;;;
2021/03/03 05:30:16;;;;;;;7.149999;3.85;;;;;;;-1.35;52.80664;96418.28;;;;
2021/03/03 05:31:18;;;;;;;7.149999;3.85;;;;;;;-1.35;52.80664;96418.28;;;;
2021/03/03 05:32:18;;;;;;;7.149999;3.85;;;;;;;-1.35;52.80664;96418.28;;;;
2021/03/03 05:33:18;;;;;;;7.850001;4;;;;;;;-1.26;52.88184;96411.27;;;;
2021/03/03 05:34:28;;;;;;;7.850001;4;;;;;;;-1.26;52.88184;96411.27;;;;
2021/03/03 05:35:28;;;;;;;7.850001;4;;;;;;;-1.26;52.88184;96411.27;;;;
2021/03/03 05:36:29;;;;;;;7.850001;4;;;;;;;-1.26;52.88184;96411.27;;;;
2021/03/03 05:37:30;;;;;;;7.850001;4;;;;;;;-1.26;52.88184;96411.27;;;;
2021/03/03 05:38:30;;;;;;;7.850001;4;;;;;;;-1.26;52.88184;96411.27;;;;